sensor_id;sensor_type;location;lat;lon;timestamp;pressure;altitude;pressure_sealevel;temperature;humidity
5380;BME280;2713;42.680;23.310;2023-01-29T00:01:35;95196.47;;;2.96;76.03
5380;BME280;2713;42.680;23.310;2023-01-29T00:04:03;95199.69;;;2.98;75.39
5380;BME280;2713;42.680;23.310;2023-01-29T00:06:30;95203.94;;;3.08;74.86
5380;BME280;2713;42.680;23.310;2023-01-29T00:08:57;95199.59;;;3.09;74.83
5380;BME280;2713;42.680;23.310;2023-01-29T00:11:24;95205.66;;;2.98;75.43
5380;BME280;2713;42.680;23.310;2023-01-29T00:13:51;95210.75;;;2.89;75.65
5380;BME280;2713;42.680;23.310;2023-01-29T00:16:18;95211.56;;;2.89;75.37
5380;BME280;2713;42.680;23.310;2023-01-29T00:18:45;95215.72;;;3.11;74.94
5380;BME280;2713;42.680;23.310;2023-01-29T00:21:18;95211.41;;;3.21;74.95
5380;BME280;2713;42.680;23.310;2023-01-29T00:23:46;95217.88;;;3.16;74.67
5380;BME280;2713;42.680;23.310;2023-01-29T00:26:14;95217.00;;;2.96;75.53
5380;BME280;2713;42.680;23.310;2023-01-29T00:28:44;95216.09;;;3.06;75.76
5380;BME280;2713;42.680;23.310;2023-01-29T00:31:13;95219.41;;;3.18;75.38
5380;BME280;2713;42.680;23.310;2023-01-29T00:33:42;95215.75;;;3.30;74.91
5380;BME280;2713;42.680;23.310;2023-01-29T00:36:10;95223.16;;;3.14;74.94
5380;BME280;2713;42.680;23.310;2023-01-29T00:38:39;95223.25;;;3.03;75.75
5380;BME280;2713;42.680;23.310;2023-01-29T00:41:06;95219.47;;;3.07;75.06
5380;BME280;2713;42.680;23.310;2023-01-29T00:43:51;95217.66;;;2.98;74.99
5380;BME280;2713;42.680;23.310;2023-01-29T00:46:35;95222.38;;;2.83;76.04
5380;BME280;2713;42.680;23.310;2023-01-29T00:49:02;95213.59;;;2.86;76.82
5380;BME280;2713;42.680;23.310;2023-01-29T00:51:33;95185.91;;;2.89;75.62
5380;BME280;2713;42.680;23.310;2023-01-29T00:54:01;95225.38;;;2.98;76.07
5380;BME280;2713;42.680;23.310;2023-01-29T00:56:29;95230.47;;;2.88;75.88
5380;BME280;2713;42.680;23.310;2023-01-29T00:58:56;95219.88;;;2.72;76.67
5380;BME280;2713;42.680;23.310;2023-01-29T01:01:23;95219.44;;;2.67;77.75
5380;BME280;2713;42.680;23.310;2023-01-29T01:04:04;95212.94;;;2.63;77.63
5380;BME280;2713;42.680;23.310;2023-01-29T01:06:31;95208.44;;;2.55;77.51
5380;BME280;2713;42.680;23.310;2023-01-29T01:08:58;95211.88;;;2.66;78.53
5380;BME280;2713;42.680;23.310;2023-01-29T01:11:43;95221.38;;;2.54;79.43
5380;BME280;2713;42.680;23.310;2023-01-29T01:14:10;95215.53;;;2.42;78.89
5380;BME280;2713;42.680;23.310;2023-01-29T01:16:37;95218.16;;;2.31;80.10
5380;BME280;2713;42.680;23.310;2023-01-29T01:19:04;95219.97;;;2.40;79.89
5380;BME280;2713;42.680;23.310;2023-01-29T01:21:31;95216.97;;;2.35;80.28
5380;BME280;2713;42.680;23.310;2023-01-29T01:23:58;95219.13;;;2.40;79.13
5380;BME280;2713;42.680;23.310;2023-01-29T01:26:26;95207.66;;;2.34;78.97
5380;BME280;2713;42.680;23.310;2023-01-29T01:28:55;95210.41;;;2.42;79.38
5380;BME280;2713;42.680;23.310;2023-01-29T01:31:22;95217.03;;;2.45;79.38
5380;BME280;2713;42.680;23.310;2023-01-29T01:33:49;95212.16;;;2.42;78.99
5380;BME280;2713;42.680;23.310;2023-01-29T01:36:18;95208.56;;;2.33;79.39
5380;BME280;2713;42.680;23.310;2023-01-29T01:38:45;95215.53;;;2.22;80.14
5380;BME280;2713;42.680;23.310;2023-01-29T01:41:13;95213.41;;;2.27;79.60
5380;BME280;2713;42.680;23.310;2023-01-29T01:43:51;95210.88;;;2.36;80.01
5380;BME280;2713;42.680;23.310;2023-01-29T01:46:21;95220.09;;;2.39;79.27
5380;BME280;2713;42.680;23.310;2023-01-29T01:48:54;95222.19;;;2.54;80.51
5380;BME280;2713;42.680;23.310;2023-01-29T01:51:24;95216.66;;;2.49;79.54
5380;BME280;2713;42.680;23.310;2023-01-29T01:53:55;95219.09;;;2.30;79.76
5380;BME280;2713;42.680;23.310;2023-01-29T01:56:26;95222.63;;;2.29;80.70
5380;BME280;2713;42.680;23.310;2023-01-29T01:59:06;95233.97;;;2.36;80.86
5380;BME280;2713;42.680;23.310;2023-01-29T02:01:36;95228.16;;;2.55;80.00
5380;BME280;2713;42.680;23.310;2023-01-29T02:04:11;95222.41;;;2.63;79.68
5380;BME280;2713;42.680;23.310;2023-01-29T02:07:00;95226.91;;;2.29;80.73
5380;BME280;2713;42.680;23.310;2023-01-29T02:09:49;95236.69;;;2.35;80.66
5380;BME280;2713;42.680;23.310;2023-01-29T02:12:18;95230.34;;;2.39;80.72
5380;BME280;2713;42.680;23.310;2023-01-29T02:14:46;95218.50;;;2.47;80.51
5380;BME280;2713;42.680;23.310;2023-01-29T02:17:16;95218.84;;;2.33;80.96
5380;BME280;2713;42.680;23.310;2023-01-29T02:19:47;95227.75;;;2.29;81.12
5380;BME280;2713;42.680;23.310;2023-01-29T02:22:28;95225.53;;;2.45;80.58
5380;BME280;2713;42.680;23.310;2023-01-29T02:25:02;95232.97;;;2.48;81.09
5380;BME280;2713;42.680;23.310;2023-01-29T02:31:00;95235.34;;;2.61;79.93
5380;BME280;2713;42.680;23.310;2023-01-29T02:33:40;95234.53;;;2.40;80.76
5380;BME280;2713;42.680;23.310;2023-01-29T02:36:21;95238.31;;;2.36;80.60
5380;BME280;2713;42.680;23.310;2023-01-29T02:38:59;95251.25;;;2.34;81.59
5380;BME280;2713;42.680;23.310;2023-01-29T02:41:35;95251.00;;;2.37;81.71
5380;BME280;2713;42.680;23.310;2023-01-29T02:44:07;95245.91;;;2.47;81.12
5380;BME280;2713;42.680;23.310;2023-01-29T02:46:43;95249.59;;;2.33;82.06
5380;BME280;2713;42.680;23.310;2023-01-29T02:49:21;95248.13;;;2.31;82.28
5380;BME280;2713;42.680;23.310;2023-01-29T02:51:55;95254.47;;;2.36;82.14
5380;BME280;2713;42.680;23.310;2023-01-29T02:54:30;95250.88;;;2.18;82.60
5380;BME280;2713;42.680;23.310;2023-01-29T02:57:05;95242.97;;;2.31;82.69
5380;BME280;2713;42.680;23.310;2023-01-29T02:59:42;95244.41;;;2.44;81.97
5380;BME280;2713;42.680;23.310;2023-01-29T03:02:14;95248.38;;;2.48;81.63
5380;BME280;2713;42.680;23.310;2023-01-29T03:04:46;95254.25;;;2.39;82.29
5380;BME280;2713;42.680;23.310;2023-01-29T03:07:17;95249.59;;;2.33;82.29
5380;BME280;2713;42.680;23.310;2023-01-29T03:10:12;95246.88;;;2.25;82.54
5380;BME280;2713;42.680;23.310;2023-01-29T03:12:43;95247.50;;;2.38;82.84
5380;BME280;2713;42.680;23.310;2023-01-29T03:15:17;95248.38;;;2.28;82.88
5380;BME280;2713;42.680;23.310;2023-01-29T03:18:07;95254.38;;;2.38;83.22
5380;BME280;2713;42.680;23.310;2023-01-29T03:20:38;95251.56;;;2.41;82.72
5380;BME280;2713;42.680;23.310;2023-01-29T03:23:16;95253.13;;;2.32;82.51
5380;BME280;2713;42.680;23.310;2023-01-29T03:25:50;95260.69;;;2.34;83.30
5380;BME280;2713;42.680;23.310;2023-01-29T03:28:38;95258.44;;;2.40;82.94
5380;BME280;2713;42.680;23.310;2023-01-29T03:31:25;95258.94;;;2.34;82.95
5380;BME280;2713;42.680;23.310;2023-01-29T03:34:13;95261.63;;;2.53;82.43
5380;BME280;2713;42.680;23.310;2023-01-29T03:36:51;95253.22;;;2.72;80.76
5380;BME280;2713;42.680;23.310;2023-01-29T03:39:23;95248.53;;;2.77;80.77
5380;BME280;2713;42.680;23.310;2023-01-29T03:41:56;95258.72;;;2.68;80.24
5380;BME280;2713;42.680;23.310;2023-01-29T03:44:33;95258.81;;;2.57;80.89
5380;BME280;2713;42.680;23.310;2023-01-29T03:47:08;95253.59;;;2.68;81.24
5380;BME280;2713;42.680;23.310;2023-01-29T03:49:49;95253.84;;;2.65;80.74
5380;BME280;2713;42.680;23.310;2023-01-29T03:52:23;95255.44;;;2.56;80.68
5380;BME280;2713;42.680;23.310;2023-01-29T03:54:58;95253.22;;;2.72;79.52
5380;BME280;2713;42.680;23.310;2023-01-29T03:57:35;95257.81;;;2.69;80.06
5380;BME280;2713;42.680;23.310;2023-01-29T04:00:11;95253.50;;;2.69;80.48
5380;BME280;2713;42.680;23.310;2023-01-29T04:03:00;95254.16;;;2.71;80.63
5380;BME280;2713;42.680;23.310;2023-01-29T04:05:37;95249.88;;;2.51;80.81
5380;BME280;2713;42.680;23.310;2023-01-29T04:08:15;95259.75;;;2.55;81.91
5380;BME280;2713;42.680;23.310;2023-01-29T04:10:44;95255.38;;;2.46;81.44
5380;BME280;2713;42.680;23.310;2023-01-29T04:13:15;95257.88;;;2.58;81.52
5380;BME280;2713;42.680;23.310;2023-01-29T04:15:48;95262.69;;;2.72;80.82
5380;BME280;2713;42.680;23.310;2023-01-29T04:18:22;95261.03;;;2.71;81.64
5380;BME280;2713;42.680;23.310;2023-01-29T04:21:04;95255.03;;;2.40;81.30
5380;BME280;2713;42.680;23.310;2023-01-29T04:23:32;95259.31;;;2.50;81.40
5380;BME280;2713;42.680;23.310;2023-01-29T04:29:08;95272.94;;;2.72;81.52
5380;BME280;2713;42.680;23.310;2023-01-29T04:31:46;95271.09;;;2.74;81.34
5380;BME280;2713;42.680;23.310;2023-01-29T04:34:20;95272.91;;;2.62;81.31
5380;BME280;2713;42.680;23.310;2023-01-29T04:36:58;95270.38;;;2.51;81.33
5380;BME280;2713;42.680;23.310;2023-01-29T04:39:32;95273.47;;;2.66;80.63
5380;BME280;2713;42.680;23.310;2023-01-29T04:42:05;95270.38;;;2.72;80.94
5380;BME280;2713;42.680;23.310;2023-01-29T04:44:39;95273.66;;;2.74;80.17
5380;BME280;2713;42.680;23.310;2023-01-29T04:47:15;95273.31;;;2.67;80.48
5380;BME280;2713;42.680;23.310;2023-01-29T04:49:48;95268.94;;;2.58;80.09
5380;BME280;2713;42.680;23.310;2023-01-29T04:52:26;95276.78;;;2.57;80.16
5380;BME280;2713;42.680;23.310;2023-01-29T04:55:01;95279.53;;;2.65;80.53
5380;BME280;2713;42.680;23.310;2023-01-29T04:57:34;95282.66;;;2.47;80.17
5380;BME280;2713;42.680;23.310;2023-01-29T05:00:05;95282.22;;;2.42;81.49
5380;BME280;2713;42.680;23.310;2023-01-29T05:02:38;95280.91;;;2.48;80.69
5380;BME280;2713;42.680;23.310;2023-01-29T05:05:07;95283.78;;;2.54;81.36
5380;BME280;2713;42.680;23.310;2023-01-29T05:07:37;95284.28;;;2.48;80.38
5380;BME280;2713;42.680;23.310;2023-01-29T05:10:07;95266.75;;;2.53;80.54
5380;BME280;2713;42.680;23.310;2023-01-29T05:12:36;95290.53;;;2.55;80.14
5380;BME280;2713;42.680;23.310;2023-01-29T05:15:08;95281.03;;;2.46;81.18
5380;BME280;2713;42.680;23.310;2023-01-29T05:17:36;95291.97;;;2.48;80.34
5380;BME280;2713;42.680;23.310;2023-01-29T05:20:03;95293.66;;;2.38;80.40
5380;BME280;2713;42.680;23.310;2023-01-29T05:22:30;95285.72;;;2.41;81.47
5380;BME280;2713;42.680;23.310;2023-01-29T05:24:58;95281.78;;;2.37;81.24
5380;BME280;2713;42.680;23.310;2023-01-29T05:27:30;95291.88;;;2.50;80.91
5380;BME280;2713;42.680;23.310;2023-01-29T05:30:17;95294.25;;;2.63;79.98
5380;BME280;2713;42.680;23.310;2023-01-29T05:32:44;95294.91;;;2.65;80.56
5380;BME280;2713;42.680;23.310;2023-01-29T05:35:11;95300.56;;;2.79;80.14
5380;BME280;2713;42.680;23.310;2023-01-29T05:37:38;95300.81;;;2.55;80.16
5380;BME280;2713;42.680;23.310;2023-01-29T05:40:08;95293.41;;;2.62;79.62
5380;BME280;2713;42.680;23.310;2023-01-29T05:42:35;95311.06;;;2.76;79.35
5380;BME280;2713;42.680;23.310;2023-01-29T05:45:02;95300.09;;;2.74;79.27
5380;BME280;2713;42.680;23.310;2023-01-29T05:47:29;95315.03;;;2.60;80.35
5380;BME280;2713;42.680;23.310;2023-01-29T05:49:56;95309.81;;;2.71;80.07
5380;BME280;2713;42.680;23.310;2023-01-29T05:52:22;95312.94;;;2.74;78.93
5380;BME280;2713;42.680;23.310;2023-01-29T05:54:49;95317.84;;;2.77;79.03
5380;BME280;2713;42.680;23.310;2023-01-29T05:57:17;95327.19;;;2.88;79.19
5380;BME280;2713;42.680;23.310;2023-01-29T05:59:44;95321.28;;;2.87;79.52
5380;BME280;2713;42.680;23.310;2023-01-29T06:02:11;95322.63;;;2.71;79.34
5380;BME280;2713;42.680;23.310;2023-01-29T06:04:38;95321.91;;;2.59;79.75
5380;BME280;2713;42.680;23.310;2023-01-29T06:07:05;95321.66;;;2.62;80.49
5380;BME280;2713;42.680;23.310;2023-01-29T06:09:31;95318.88;;;2.54;81.07
5380;BME280;2713;42.680;23.310;2023-01-29T06:11:58;95328.66;;;2.60;81.02
5380;BME280;2713;42.680;23.310;2023-01-29T06:14:26;95330.31;;;2.29;81.60
5380;BME280;2713;42.680;23.310;2023-01-29T06:16:53;95339.13;;;2.36;82.25
5380;BME280;2713;42.680;23.310;2023-01-29T06:19:20;95337.06;;;2.30;82.22
5380;BME280;2713;42.680;23.310;2023-01-29T06:21:47;95338.47;;;2.23;82.86
5380;BME280;2713;42.680;23.310;2023-01-29T06:24:13;95338.50;;;2.44;82.67
5380;BME280;2713;42.680;23.310;2023-01-29T06:26:40;95351.84;;;2.38;81.85
5380;BME280;2713;42.680;23.310;2023-01-29T06:29:07;95349.09;;;2.50;82.16
5380;BME280;2713;42.680;23.310;2023-01-29T06:31:35;95354.47;;;2.47;81.14
5380;BME280;2713;42.680;23.310;2023-01-29T06:34:02;95354.22;;;2.50;81.70
5380;BME280;2713;42.680;23.310;2023-01-29T06:36:29;95358.69;;;2.69;81.69
5380;BME280;2713;42.680;23.310;2023-01-29T06:38:56;95360.66;;;2.77;80.79
5380;BME280;2713;42.680;23.310;2023-01-29T06:41:22;95367.31;;;2.68;80.94
5380;BME280;2713;42.680;23.310;2023-01-29T06:43:50;95367.03;;;2.82;81.81
5380;BME280;2713;42.680;23.310;2023-01-29T06:46:17;95364.47;;;2.82;80.56
5380;BME280;2713;42.680;23.310;2023-01-29T06:48:45;95364.25;;;2.74;80.87
5380;BME280;2713;42.680;23.310;2023-01-29T06:51:12;95359.88;;;2.65;81.21
5380;BME280;2713;42.680;23.310;2023-01-29T06:53:39;95358.94;;;2.45;81.38
5380;BME280;2713;42.680;23.310;2023-01-29T06:56:06;95373.63;;;2.64;82.04
5380;BME280;2713;42.680;23.310;2023-01-29T06:58:35;95374.88;;;2.81;81.04
5380;BME280;2713;42.680;23.310;2023-01-29T07:01:04;95376.63;;;2.80;81.62
5380;BME280;2713;42.680;23.310;2023-01-29T07:03:31;95380.00;;;2.81;80.87
5380;BME280;2713;42.680;23.310;2023-01-29T07:05:59;95375.72;;;2.70;81.76
5380;BME280;2713;42.680;23.310;2023-01-29T07:08:27;95381.44;;;2.74;81.85
5380;BME280;2713;42.680;23.310;2023-01-29T07:10:57;95384.38;;;2.69;81.11
5380;BME280;2713;42.680;23.310;2023-01-29T07:13:24;95380.78;;;2.81;81.81
5380;BME280;2713;42.680;23.310;2023-01-29T07:15:51;95389.03;;;2.64;81.44
5380;BME280;2713;42.680;23.310;2023-01-29T07:18:18;95393.13;;;2.67;81.77
5380;BME280;2713;42.680;23.310;2023-01-29T07:20:45;95394.44;;;2.82;81.29
5380;BME280;2713;42.680;23.310;2023-01-29T07:23:14;95405.59;;;2.92;80.89
5380;BME280;2713;42.680;23.310;2023-01-29T07:25:42;95396.34;;;3.00;80.29
5380;BME280;2713;42.680;23.310;2023-01-29T07:28:09;95399.66;;;3.12;80.02
5380;BME280;2713;42.680;23.310;2023-01-29T07:30:36;95403.28;;;2.89;79.42
5380;BME280;2713;42.680;23.310;2023-01-29T07:33:04;95406.91;;;2.86;79.90
5380;BME280;2713;42.680;23.310;2023-01-29T07:35:34;95396.03;;;2.94;80.40
5380;BME280;2713;42.680;23.310;2023-01-29T07:38:01;95395.88;;;2.95;78.98
5380;BME280;2713;42.680;23.310;2023-01-29T07:40:29;95407.91;;;2.95;79.83
5380;BME280;2713;42.680;23.310;2023-01-29T07:42:57;95411.91;;;2.88;79.68
5380;BME280;2713;42.680;23.310;2023-01-29T07:45:25;95405.59;;;2.92;79.78
5380;BME280;2713;42.680;23.310;2023-01-29T07:47:52;95406.00;;;3.08;79.53
5380;BME280;2713;42.680;23.310;2023-01-29T07:50:20;95410.44;;;3.06;79.45
5380;BME280;2713;42.680;23.310;2023-01-29T07:52:46;95419.00;;;2.95;79.95
5380;BME280;2713;42.680;23.310;2023-01-29T07:55:13;95408.41;;;2.89;80.31
5380;BME280;2713;42.680;23.310;2023-01-29T07:57:42;95412.56;;;3.01;79.68
5380;BME280;2713;42.680;23.310;2023-01-29T08:00:10;95421.97;;;2.91;80.33
5380;BME280;2713;42.680;23.310;2023-01-29T08:02:40;95422.53;;;2.94;79.92
5380;BME280;2713;42.680;23.310;2023-01-29T08:05:07;95424.88;;;2.86;80.61
5380;BME280;2713;42.680;23.310;2023-01-29T08:07:34;95423.38;;;2.84;80.92
5380;BME280;2713;42.680;23.310;2023-01-29T08:10:01;95425.63;;;2.98;80.93
5380;BME280;2713;42.680;23.310;2023-01-29T08:12:28;95425.19;;;2.93;81.57
5380;BME280;2713;42.680;23.310;2023-01-29T08:14:56;95420.94;;;3.03;81.24
5380;BME280;2713;42.680;23.310;2023-01-29T08:17:23;95420.56;;;2.87;80.53
5380;BME280;2713;42.680;23.310;2023-01-29T08:19:50;95431.91;;;3.05;79.56
5380;BME280;2713;42.680;23.310;2023-01-29T08:22:16;95430.59;;;2.90;80.00
5380;BME280;2713;42.680;23.310;2023-01-29T08:24:43;95422.81;;;2.80;79.77
5380;BME280;2713;42.680;23.310;2023-01-29T08:27:10;95428.78;;;2.81;80.41
5380;BME280;2713;42.680;23.310;2023-01-29T08:29:37;95427.09;;;2.91;78.70
5380;BME280;2713;42.680;23.310;2023-01-29T08:32:08;95439.75;;;2.72;79.41
5380;BME280;2713;42.680;23.310;2023-01-29T08:34:35;95442.63;;;2.78;79.49
5380;BME280;2713;42.680;23.310;2023-01-29T08:37:01;95443.75;;;2.96;79.33
5380;BME280;2713;42.680;23.310;2023-01-29T08:39:28;95445.00;;;3.02;78.83
5380;BME280;2713;42.680;23.310;2023-01-29T08:41:55;95449.31;;;3.22;77.39
5380;BME280;2713;42.680;23.310;2023-01-29T08:44:22;95443.56;;;3.09;77.80
5380;BME280;2713;42.680;23.310;2023-01-29T08:46:48;95450.75;;;3.15;77.26
5380;BME280;2713;42.680;23.310;2023-01-29T08:49:17;95459.38;;;3.25;77.09
5380;BME280;2713;42.680;23.310;2023-01-29T08:51:43;95457.47;;;3.27;77.04
5380;BME280;2713;42.680;23.310;2023-01-29T08:54:10;95462.34;;;3.10;76.67
5380;BME280;2713;42.680;23.310;2023-01-29T08:56:37;95461.03;;;2.94;78.25
5380;BME280;2713;42.680;23.310;2023-01-29T08:59:04;95467.13;;;2.82;78.32
5380;BME280;2713;42.680;23.310;2023-01-29T09:01:31;95468.44;;;2.77;78.40
5380;BME280;2713;42.680;23.310;2023-01-29T09:03:58;95466.56;;;2.79;78.81
5380;BME280;2713;42.680;23.310;2023-01-29T09:06:26;95471.69;;;2.79;78.19
5380;BME280;2713;42.680;23.310;2023-01-29T09:08:52;95473.66;;;2.86;77.78
5380;BME280;2713;42.680;23.310;2023-01-29T09:11:19;95470.22;;;2.97;77.58
5380;BME280;2713;42.680;23.310;2023-01-29T09:13:46;95466.97;;;2.95;76.71
5380;BME280;2713;42.680;23.310;2023-01-29T09:16:13;95456.22;;;3.01;76.88
5380;BME280;2713;42.680;23.310;2023-01-29T09:18:40;95464.78;;;2.90;77.61
5380;BME280;2713;42.680;23.310;2023-01-29T09:21:07;95462.63;;;2.95;77.96
5380;BME280;2713;42.680;23.310;2023-01-29T09:23:36;95462.13;;;2.81;78.43
5380;BME280;2713;42.680;23.310;2023-01-29T09:26:03;95435.47;;;2.61;78.08
5380;BME280;2713;42.680;23.310;2023-01-29T09:28:30;95457.91;;;2.91;78.50
5380;BME280;2713;42.680;23.310;2023-01-29T09:30:59;95461.03;;;2.94;77.76
5380;BME280;2713;42.680;23.310;2023-01-29T09:33:27;95463.53;;;3.26;76.96
5380;BME280;2713;42.680;23.310;2023-01-29T09:35:53;95463.50;;;3.37;76.09
5380;BME280;2713;42.680;23.310;2023-01-29T09:38:20;95454.84;;;3.38;75.62
5380;BME280;2713;42.680;23.310;2023-01-29T09:40:57;95453.16;;;3.48;76.69
5380;BME280;2713;42.680;23.310;2023-01-29T09:43:34;95452.34;;;3.27;75.01
5380;BME280;2713;42.680;23.310;2023-01-29T09:46:10;95457.53;;;3.16;76.60
5380;BME280;2713;42.680;23.310;2023-01-29T09:48:41;95455.66;;;3.18;76.82
5380;BME280;2713;42.680;23.310;2023-01-29T09:51:15;95450.44;;;3.29;76.55
5380;BME280;2713;42.680;23.310;2023-01-29T09:53:52;95448.94;;;3.06;77.11
5380;BME280;2713;42.680;23.310;2023-01-29T09:56:22;95453.56;;;3.12;77.69
5380;BME280;2713;42.680;23.310;2023-01-29T09:58:56;95445.94;;;3.01;77.87
5380;BME280;2713;42.680;23.310;2023-01-29T10:01:31;95446.16;;;2.98;77.52
5380;BME280;2713;42.680;23.310;2023-01-29T10:04:15;95443.56;;;3.09;77.08
5380;BME280;2713;42.680;23.310;2023-01-29T10:07:01;95430.41;;;3.02;76.69
5380;BME280;2713;42.680;23.310;2023-01-29T10:12:59;95442.28;;;2.83;77.50
5380;BME280;2713;42.680;23.310;2023-01-29T10:15:39;95430.59;;;2.90;77.51
5380;BME280;2713;42.680;23.310;2023-01-29T10:18:29;95434.78;;;2.91;78.06
5380;BME280;2713;42.680;23.310;2023-01-29T10:21:11;95433.09;;;2.80;78.17
5380;BME280;2713;42.680;23.310;2023-01-29T10:23:45;95420.38;;;2.79;77.88
5380;BME280;2713;42.680;23.310;2023-01-29T10:26:13;95423.44;;;2.93;77.11
5380;BME280;2713;42.680;23.310;2023-01-29T10:28:43;95420.59;;;2.76;77.56
5380;BME280;2713;42.680;23.310;2023-01-29T10:31:14;95419.50;;;2.58;79.32
5380;BME280;2713;42.680;23.310;2023-01-29T10:33:48;95416.75;;;2.49;80.03
5380;BME280;2713;42.680;23.310;2023-01-29T10:36:20;95418.78;;;2.67;79.86
5380;BME280;2713;42.680;23.310;2023-01-29T10:38:49;95413.41;;;2.70;79.06
5380;BME280;2713;42.680;23.310;2023-01-29T10:41:25;95403.16;;;2.70;79.32
5380;BME280;2713;42.680;23.310;2023-01-29T10:44:11;95416.25;;;2.87;78.58
5380;BME280;2713;42.680;23.310;2023-01-29T10:46:58;95413.75;;;2.97;77.44
5380;BME280;2713;42.680;23.310;2023-01-29T10:49:40;95388.94;;;2.86;77.54
5380;BME280;2713;42.680;23.310;2023-01-29T10:52:22;95411.13;;;3.08;77.75
5380;BME280;2713;42.680;23.310;2023-01-29T10:55:02;95407.66;;;2.77;78.21
5380;BME280;2713;42.680;23.310;2023-01-29T10:57:51;95394.44;;;2.82;78.21
5380;BME280;2713;42.680;23.310;2023-01-29T11:00:27;95397.47;;;3.08;77.84
5380;BME280;2713;42.680;23.310;2023-01-29T11:03:07;95402.03;;;3.25;77.05
5380;BME280;2713;42.680;23.310;2023-01-29T11:05:43;95406.97;;;2.96;76.60
5380;BME280;2713;42.680;23.310;2023-01-29T11:08:14;95397.06;;;2.71;77.94
5380;BME280;2713;42.680;23.310;2023-01-29T11:10:47;95398.25;;;2.67;79.22
5380;BME280;2713;42.680;23.310;2023-01-29T11:13:18;95395.03;;;2.53;79.14
5380;BME280;2713;42.680;23.310;2023-01-29T11:15:46;95389.19;;;2.63;78.83
5380;BME280;2713;42.680;23.310;2023-01-29T11:18:16;95403.53;;;2.54;78.90
5380;BME280;2713;42.680;23.310;2023-01-29T11:20:44;95395.19;;;2.73;78.74
5380;BME280;2713;42.680;23.310;2023-01-29T11:23:25;95392.03;;;2.80;79.21
5380;BME280;2713;42.680;23.310;2023-01-29T11:25:54;95390.13;;;3.03;77.95
5380;BME280;2713;42.680;23.310;2023-01-29T11:28:41;95397.06;;;3.12;78.23
5380;BME280;2713;42.680;23.310;2023-01-29T11:31:17;95392.19;;;3.09;76.66
5380;BME280;2713;42.680;23.310;2023-01-29T11:33:45;95378.31;;;2.91;78.40
5380;BME280;2713;42.680;23.310;2023-01-29T11:36:28;95370.47;;;2.92;78.07
5380;BME280;2713;42.680;23.310;2023-01-29T11:39:14;95355.38;;;2.78;78.13
5380;BME280;2713;42.680;23.310;2023-01-29T11:41:44;95363.03;;;2.89;78.56
5380;BME280;2713;42.680;23.310;2023-01-29T11:44:21;95359.31;;;2.82;77.89
5380;BME280;2713;42.680;23.310;2023-01-29T11:46:53;95356.44;;;2.76;78.59
5380;BME280;2713;42.680;23.310;2023-01-29T11:49:31;95360.09;;;2.94;78.35
5380;BME280;2713;42.680;23.310;2023-01-29T11:52:01;95353.00;;;3.07;77.09
5380;BME280;2713;42.680;23.310;2023-01-29T11:54:33;95351.88;;;3.00;77.11
5380;BME280;2713;42.680;23.310;2023-01-29T11:57:02;95357.84;;;3.00;77.44
5380;BME280;2713;42.680;23.310;2023-01-29T11:59:39;95361.91;;;3.03;77.44
5380;BME280;2713;42.680;23.310;2023-01-29T12:02:22;95354.06;;;3.04;77.06
5380;BME280;2713;42.680;23.310;2023-01-29T12:04:51;95353.88;;;2.96;78.62
5380;BME280;2713;42.680;23.310;2023-01-29T12:07:19;95343.97;;;2.92;77.42
5380;BME280;2713;42.680;23.310;2023-01-29T12:09:49;95349.56;;;3.18;77.50
5380;BME280;2713;42.680;23.310;2023-01-29T12:12:31;95344.50;;;3.37;75.95
5380;BME280;2713;42.680;23.310;2023-01-29T12:15:13;95327.66;;;3.23;76.05
5380;BME280;2713;42.680;23.310;2023-01-29T12:17:46;95332.13;;;5.43;91.63
5380;BME280;2713;42.680;23.310;2023-01-29T12:20:20;95349.22;;;4.59;76.07
5380;BME280;2713;42.680;23.310;2023-01-29T12:22:52;95354.69;;;3.88;74.98
5380;BME280;2713;42.680;23.310;2023-01-29T12:25:28;95353.03;;;3.77;75.06
5380;BME280;2713;42.680;23.310;2023-01-29T12:28:04;95360.88;;;3.76;74.86
5380;BME280;2713;42.680;23.310;2023-01-29T12:30:39;95357.03;;;3.61;76.33
5380;BME280;2713;42.680;23.310;2023-01-29T12:33:13;95358.19;;;3.47;75.77
5380;BME280;2713;42.680;23.310;2023-01-29T12:35:49;95347.28;;;3.54;76.25
5380;BME280;2713;42.680;23.310;2023-01-29T12:38:19;95338.19;;;3.50;76.71
5380;BME280;2713;42.680;23.310;2023-01-29T12:40:49;95357.13;;;3.49;75.84
5380;BME280;2713;42.680;23.310;2023-01-29T12:43:21;95358.00;;;3.08;77.17
5380;BME280;2713;42.680;23.310;2023-01-29T12:45:52;95350.28;;;3.08;76.86
5380;BME280;2713;42.680;23.310;2023-01-29T12:48:25;95356.00;;;3.12;78.05
5380;BME280;2713;42.680;23.310;2023-01-29T12:51:05;95353.63;;;3.20;77.77
5380;BME280;2713;42.680;23.310;2023-01-29T12:53:36;95350.44;;;3.37;76.30
5380;BME280;2713;42.680;23.310;2023-01-29T12:56:09;95354.66;;;3.38;75.47
5380;BME280;2713;42.680;23.310;2023-01-29T12:58:41;95360.22;;;3.43;75.35
5380;BME280;2713;42.680;23.310;2023-01-29T13:01:12;95361.75;;;3.55;74.23
5380;BME280;2713;42.680;23.310;2023-01-29T13:03:48;95359.06;;;3.27;76.48
5380;BME280;2713;42.680;23.310;2023-01-29T13:06:18;95347.34;;;3.13;77.02
5380;BME280;2713;42.680;23.310;2023-01-29T13:08:50;95354.91;;;3.35;76.07
5380;BME280;2713;42.680;23.310;2023-01-29T13:11:21;95354.91;;;3.35;75.93
5380;BME280;2713;42.680;23.310;2023-01-29T13:13:51;95353.50;;;3.22;76.22
5380;BME280;2713;42.680;23.310;2023-01-29T13:16:22;95350.78;;;3.23;76.48
5380;BME280;2713;42.680;23.310;2023-01-29T13:18:55;95350.72;;;3.34;76.79
5380;BME280;2713;42.680;23.310;2023-01-29T13:21:26;95351.81;;;3.41;75.92
5380;BME280;2713;42.680;23.310;2023-01-29T13:23:56;95354.53;;;3.49;75.04
5380;BME280;2713;42.680;23.310;2023-01-29T13:26:25;95352.69;;;3.51;74.71
5380;BME280;2713;42.680;23.310;2023-01-29T13:28:53;95356.22;;;3.60;75.33
5380;BME280;2713;42.680;23.310;2023-01-29T13:31:26;95349.59;;;3.57;74.95
5380;BME280;2713;42.680;23.310;2023-01-29T13:34:01;95355.31;;;3.71;74.27
5380;BME280;2713;42.680;23.310;2023-01-29T13:36:30;95361.41;;;3.70;73.77
5380;BME280;2713;42.680;23.310;2023-01-29T13:39:01;95358.59;;;3.73;73.89
5380;BME280;2713;42.680;23.310;2023-01-29T13:41:33;95371.78;;;3.58;73.74
5380;BME280;2713;42.680;23.310;2023-01-29T13:44:04;95371.78;;;3.58;74.09
5380;BME280;2713;42.680;23.310;2023-01-29T13:46:31;95375.88;;;3.40;76.11
5380;BME280;2713;42.680;23.310;2023-01-29T13:49:00;95376.22;;;3.26;75.36
5380;BME280;2713;42.680;23.310;2023-01-29T13:51:33;95375.50;;;3.45;74.38
5380;BME280;2713;42.680;23.310;2023-01-29T13:54:03;95376.78;;;3.30;74.87
5380;BME280;2713;42.680;23.310;2023-01-29T13:56:44;95377.72;;;3.29;74.02